Black Lake, Canada
Current Conditions -  °F | °C
As of 4:00 AM on Thursday 23 Oct 2014 (Local Time) from CYSC Reporting Station
Overcast Overcast  
Wind Chill: 39°   Ceiling: 2000
Heat Index: 45°   Visibility: NA
Dew Point: 37°   Wind: 10mph
Humidity: 76%   Direction: 50°NE
Pressure: 30.08"   Gusts: 23mph
Location:  46.03°N, 71.37°W
Report Text: CYSC 230800Z AUTO 05009G20KT OVC020 07/03 A3008 RMK WX MISG VIS MISG PCPN MISG SLP190
Loading
Personal Weather Stations






























Interactive Weather Map
Tropical Storm Tracking
New forecast layout! Learn more

10-Day Weather Forecast

Advertisements
Track Severe Weather on mobile